Terminal Aerodrome Forecast
Issued by NWS

Home | Current Version | Previous Version | Text Only | Print | Product List | Glossary On
Versions: 1 2 3 4 5 6 7 8 9 10 11 12 13 14 15 16 17 18 19 20 21
063
FTUS46 KLOX 221151
TAFOXR
TAF
KOXR 221151Z 2212/2312 29010KT P6SM SCT150
     FM221330 27007KT P6SM VCSH BKN025 BKN050
     FM221800 26012KT P6SM SCT025 BKN050
     FM222100 27015G22KT P6SM BKN050
     FM230300 27010KT P6SM BKN025
     FM230700 VRB04KT P6SM OVC025=

USA.gov is the U.S. government's official web portal to all federal, state and local government web resources and services.